Time;durP1;ratioP1;P1;durP2;ratioP2;P2;SDS_P1;SDS_P2;PMS_P1;PMS_P2;Temp;Humidity;BMP_temperature;BMP_pressure;BME280_temperature;BME280_humidity;BME280_pressure;Samples;Min_cycle;Max_cycle;Signal;HPM_P1;HPM_P2
2022/10/18 00:03:07;;;;;;;6.88;6.13;;;21.20;89.90;;;;;;10541845;28;20609;-44
2022/10/18 00:08:09;;;;;;;8.77;5.50;;;21.30;89.80;;;;;;10534226;28;20044;-46
2022/10/18 00:13:13;;;;;;;9.98;4.88;;;21.30;89.80;;;;;;10542569;28;20561;-45
2022/10/18 00:18:15;;;;;;;8.05;5.43;;;21.30;89.90;;;;;;10531841;28;20458;-46
2022/10/18 00:23:17;;;;;;;7.65;4.80;;;21.30;90.00;;;;;;10540460;28;20047;-41
2022/10/18 00:28:20;;;;;;;6.25;4.03;;;21.20;90.00;;;;;;10535935;28;20079;-45
2022/10/18 00:33:22;;;;;;;6.18;3.67;;;21.20;90.00;;;;;;10533138;28;20116;-44
2022/10/18 00:38:24;;;;;;;6.40;3.50;;;21.50;90.00;;;;;;10542344;28;20104;-42
2022/10/18 00:43:27;;;;;;;6.43;3.95;;;21.20;89.90;;;;;;10534700;28;20048;-43
2022/10/18 00:48:29;;;;;;;3.83;2.85;;;21.40;89.90;;;;;;10545477;28;20047;-45
2022/10/18 00:53:31;;;;;;;5.35;2.60;;;21.20;90.00;;;;;;10526049;28;20135;-44
2022/10/18 00:58:35;;;;;;;3.28;2.60;;;21.50;90.00;;;;;;10533143;28;20446;-42
2022/10/18 01:03:38;;;;;;;7.28;3.15;;;20.90;89.80;;;;;;10524226;28;20105;-46
2022/10/18 01:08:56;;;;;;;4.35;2.28;;;21.20;89.90;;;;;;10531977;28;20055;-47
2022/10/18 01:14:11;;;;;;;4.95;2.15;;;21.90;90.20;;;;;;10538071;28;20090;-43
2022/10/18 01:19:33;;;;;;;6.18;2.33;;;21.20;90.00;;;;;;10527722;28;20135;-45
2022/10/18 01:24:54;;;;;;;4.35;1.77;;;21.20;89.90;;;;;;10537308;28;20139;-40
2022/10/18 01:30:29;;;;;;;5.47;1.90;;;21.10;89.90;;;;;;10533488;28;20079;-41
2022/10/18 01:35:37;;;;;;;2.88;1.50;;;21.10;90.20;;;;;;10513265;28;20442;-47
2022/10/18 01:40:42;;;;;;;3.25;1.80;;;21.20;89.80;;;;;;10531759;28;20404;-41
2022/10/18 01:45:44;;;;;;;2.75;1.67;;;21.20;89.70;;;;;;10532960;28;20131;-44
2022/10/18 01:50:47;;;;;;;;;;;20.60;89.30;;;;;;10532411;28;20083;-42
2022/10/18 01:55:57;;;;;;;8.80;1.98;;;21.10;89.60;;;;;;10534898;28;19968;-46
2022/10/18 02:01:06;;;;;;;4.93;1.48;;;21.30;89.70;;;;;;10539368;28;20084;-42
2022/10/18 02:06:18;;;;;;;2.05;1.30;;;21.10;89.60;;;;;;10532842;28;20650;-44
2022/10/18 02:11:20;;;;;;;2.42;1.85;;;21.10;89.40;;;;;;10532721;28;20075;-36
2022/10/18 02:16:26;;;;;;;2.55;1.30;;;21.10;89.40;;;;;;10534840;28;20498;-45
2022/10/18 02:21:30;;;;;;;2.63;1.20;;;21.10;89.30;;;;;;10523230;28;20067;-43
2022/10/18 02:26:32;;;;;;;5.30;1.15;;;21.10;89.40;;;;;;10541195;28;20139;-44
2022/10/18 02:31:39;;;;;;;3.63;1.20;;;21.10;89.30;;;;;;10532503;28;20048;-47
2022/10/18 02:36:44;;;;;;;2.80;0.95;;;21.10;89.20;;;;;;10538289;28;20071;-48
2022/10/18 02:41:46;;;;;;;3.47;1.33;;;21.10;89.10;;;;;;10537242;28;20457;-41
2022/10/18 02:46:48;;;;;;;1.05;0.73;;;21.60;89.50;;;;;;10539538;28;20048;-44
2022/10/18 02:51:51;;;;;;;5.38;1.30;;;21.00;89.40;;;;;;10537302;28;20453;-41
2022/10/18 02:56:53;;;;;;;2.97;1.55;;;20.70;89.00;;;;;;10547586;28;20373;-40
2022/10/18 03:01:55;;;;;;;5.22;1.00;;;21.00;89.00;;;;;;10551334;28;20632;-42
2022/10/18 03:06:58;;;;;;;3.00;1.13;;;21.00;89.00;;;;;;10548314;28;20048;-43
2022/10/18 03:12:00;;;;;;;3.22;0.98;;;21.80;89.40;;;;;;10537036;28;20472;-40
2022/10/18 03:17:02;;;;;;;2.90;1.00;;;21.10;88.60;;;;;;10539079;28;20052;-47
2022/10/18 03:22:05;;;;;;;1.85;1.17;;;21.20;88.70;;;;;;10544948;28;20060;-47
2022/10/18 03:27:07;;;;;;;5.00;1.30;;;22.10;89.20;;;;;;10536362;28;20472;-38
2022/10/18 03:32:09;;;;;;;3.08;1.23;;;21.00;88.50;;;;;;10537799;28;20059;-41
2022/10/18 03:37:12;;;;;;;4.15;2.00;;;21.00;88.40;;;;;;10537155;28;20067;-44
2022/10/18 03:42:14;;;;;;;2.10;1.20;;;21.00;88.30;;;;;;10539039;28;20542;-43
2022/10/18 03:47:16;;;;;;;2.00;1.00;;;21.00;88.30;;;;;;10545890;28;20044;-41
2022/10/18 03:52:19;;;;;;;6.68;1.00;;;20.90;88.30;;;;;;10536527;28;20135;-40
2022/10/18 03:57:21;;;;;;;3.00;0.80;;;20.90;88.10;;;;;;10539777;28;20131;-43
2022/10/18 04:02:23;;;;;;;4.38;1.05;;;20.90;88.10;;;;;;10539194;28;20045;-44
2022/10/18 04:07:26;;;;;;;2.05;0.75;;;20.90;88.00;;;;;;10539063;28;20109;-42
2022/10/18 04:12:28;;;;;;;2.65;1.10;;;20.90;88.00;;;;;;10535568;28;20141;-43
2022/10/18 04:17:30;;;;;;;1.20;0.80;;;20.90;87.90;;;;;;10544010;28;20043;-42
2022/10/18 04:22:33;;;;;;;3.40;0.95;;;20.90;87.80;;;;;;10539178;28;20044;-43
2022/10/18 04:27:35;;;;;;;3.58;0.93;;;20.90;87.60;;;;;;10533595;28;20089;-42
2022/10/18 04:32:37;;;;;;;2.45;0.95;;;20.90;87.60;;;;;;10532624;28;20495;-45
2022/10/18 04:37:40;;;;;;;4.15;1.10;;;20.80;87.60;;;;;;10533016;28;20381;-44
2022/10/18 04:42:42;;;;;;;2.03;0.88;;;21.70;87.80;;;;;;10533612;28;20124;-44
2022/10/18 04:47:44;;;;;;;4.75;1.05;;;20.60;87.20;;;;;;10533724;28;20052;-44
2022/10/18 04:52:47;;;;;;;2.67;0.90;;;20.90;87.20;;;;;;10533212;28;20139;-44
2022/10/18 04:57:49;;;;;;;1.63;0.80;;;20.90;87.20;;;;;;10531561;28;20044;-44
2022/10/18 05:02:55;;;;;;;2.20;1.00;;;20.80;87.30;;;;;;10530808;28;20044;-43
2022/10/18 05:07:58;;;;;;;3.63;1.20;;;20.80;87.10;;;;;;10532143;28;20101;-43
2022/10/18 05:13:00;;;;;;;3.15;1.40;;;20.80;87.00;;;;;;10531576;28;20054;-42
2022/10/18 05:18:02;;;;;;;3.10;1.48;;;20.80;87.00;;;;;;10537815;28;20052;-44
2022/10/18 05:23:05;;;;;;;4.10;1.30;;;20.30;86.60;;;;;;10548275;28;20079;-42
2022/10/18 05:28:08;;;;;;;5.13;1.20;;;20.80;86.70;;;;;;10530350;28;20071;-42
2022/10/18 05:33:09;;;;;;;7.72;1.30;;;20.90;86.80;;;;;;10524793;28;20052;-44
2022/10/18 05:38:13;;;;;;;5.22;1.27;;;21.40;87.10;;;;;;10536399;28;20058;-44
2022/10/18 05:43:16;;;;;;;4.57;1.60;;;20.10;86.00;;;;;;10531610;28;20067;-41
2022/10/18 05:48:18;;;;;;;3.47;1.23;;;20.80;86.20;;;;;;10528104;28;20043;-43
2022/10/18 05:53:21;;;;;;;2.92;1.00;;;20.70;85.90;;;;;;10533132;28;20140;-44
2022/10/18 05:58:23;;;;;;;8.57;1.38;;;21.50;86.00;;;;;;10538724;28;20749;-43
2022/10/18 06:03:26;;;;;;;2.75;1.23;;;20.70;85.20;;;;;;10532328;28;20145;-45
2022/10/18 06:08:29;;;;;;;8.63;1.58;;;20.80;84.90;;;;;;10533176;28;20081;-44
2022/10/18 06:13:31;;;;;;;9.05;2.15;;;20.70;84.70;;;;;;10534834;28;20633;-44
2022/10/18 06:18:33;;;;;;;6.40;0.93;;;20.50;84.50;;;;;;10547797;28;20400;-43
2022/10/18 06:23:37;;;;;;;5.25;1.33;;;21.60;84.80;;;;;;10550388;28;20126;-43
2022/10/18 06:28:38;;;;;;;6.07;1.42;;;20.60;83.70;;;;;;10540715;28;20047;-42
2022/10/18 06:33:41;;;;;;;5.70;1.83;;;20.60;83.90;;;;;;10546169;28;20058;-41
2022/10/18 06:38:44;;;;;;;4.15;1.58;;;20.60;83.90;;;;;;10534509;28;20040;-43
2022/10/18 06:43:48;;;;;;;6.80;1.85;;;20.60;83.70;;;;;;10521329;28;20048;-43
2022/10/18 06:48:50;;;;;;;5.70;1.58;;;20.60;83.70;;;;;;10529892;28;20048;-44
2022/10/18 06:53:54;;;;;;;3.40;1.30;;;20.60;83.50;;;;;;10529476;28;20207;-47
2022/10/18 06:58:56;;;;;;;7.78;1.45;;;20.00;83.10;;;;;;10530727;28;20110;-41
2022/10/18 07:03:58;;;;;;;3.83;1.42;;;20.60;83.40;;;;;;10537057;28;20055;-44
2022/10/18 07:09:01;;;;;;;3.35;1.40;;;20.70;83.20;;;;;;10536391;28;20131;-41
2022/10/18 07:14:04;;;;;;;4.05;1.67;;;20.60;83.00;;;;;;10527045;28;20056;-44
2022/10/18 07:19:06;;;;;;;3.30;1.05;;;20.70;82.50;;;;;;10535507;28;20471;-44
2022/10/18 07:24:09;;;;;;;3.67;1.45;;;20.70;82.40;;;;;;10541421;28;20086;-43
2022/10/18 07:29:12;;;;;;;4.40;1.55;;;20.70;82.00;;;;;;10538648;28;20068;-44
2022/10/18 07:34:14;;;;;;;4.07;1.40;;;20.70;81.60;;;;;;10536701;28;20047;-40
2022/10/18 07:39:17;;;;;;;5.00;1.60;;;20.80;81.50;;;;;;10536584;28;20071;-43
2022/10/18 07:44:19;;;;;;;3.67;1.58;;;20.80;81.20;;;;;;10535445;28;20459;-41
2022/10/18 07:49:21;;;;;;;6.50;2.30;;;20.80;81.00;;;;;;10534993;28;20044;-47
2022/10/18 07:54:24;;;;;;;8.38;1.63;;;20.80;80.80;;;;;;10533976;28;20455;-46
2022/10/18 07:59:26;;;;;;;5.88;1.40;;;20.80;80.80;;;;;;10534453;28;20064;-46
2022/10/18 08:04:28;;;;;;;3.30;1.50;;;20.90;80.50;;;;;;10535105;28;20071;-44
2022/10/18 08:09:31;;;;;;;9.95;1.50;;;20.80;80.60;;;;;;10531804;28;20082;-45
2022/10/18 08:14:33;;;;;;;7.45;1.58;;;21.90;81.00;;;;;;10532926;28;20087;-47
2022/10/18 08:19:34;;;;;;;14.82;1.60;;;20.90;80.60;;;;;;10533085;28;20143;-44
2022/10/18 08:24:37;;;;;;;4.57;1.60;;;20.90;80.70;;;;;;10540113;28;20048;-41
2022/10/18 08:29:39;;;;;;;7.07;1.60;;;20.90;80.70;;;;;;10532169;28;20113;-41
2022/10/18 08:34:41;;;;;;;9.02;2.13;;;20.90;80.60;;;;;;10530636;28;20048;-42
2022/10/18 08:39:44;;;;;;;9.38;1.40;;;20.90;80.60;;;;;;10533259;28;20123;-49
2022/10/18 08:44:47;;;;;;;5.95;1.13;;;20.90;80.60;;;;;;10534588;28;20044;-45
2022/10/18 08:49:52;;;;;;;5.35;1.45;;;21.10;80.70;;;;;;10528989;28;20044;-44
2022/10/18 08:55:01;;;;;;;6.20;1.60;;;20.90;80.70;;;;;;10531332;28;20047;-45
2022/10/18 09:00:15;;;;;;;8.70;1.95;;;20.80;80.70;;;;;;10533614;28;20495;-44
2022/10/18 09:05:24;;;;;;;4.53;1.20;;;20.90;80.80;;;;;;10524363;28;20378;-42
2022/10/18 09:10:42;;;;;;;9.07;2.17;;;20.40;80.60;;;;;;10525145;28;20040;-41
2022/10/18 09:15:48;;;;;;;5.40;1.15;;;21.00;80.80;;;;;;10532934;28;20118;-48
2022/10/18 09:20:56;;;;;;;4.88;1.20;;;20.70;82.00;;;;;;10525630;28;20051;-43
2022/10/18 09:26:06;;;;;;;8.07;1.85;;;20.00;80.30;;;;;;10537749;28;20061;-42
2022/10/18 09:31:19;;;;;;;5.90;1.10;;;21.00;80.90;;;;;;10531600;28;20056;-43
2022/10/18 09:36:23;;;;;;;6.25;1.02;;;21.00;81.00;;;;;;10541290;28;20507;-47
2022/10/18 09:41:31;;;;;;;3.97;0.98;;;21.00;81.10;;;;;;10529087;28;20075;-45
2022/10/18 09:46:38;;;;;;;4.05;1.10;;;21.00;79.10;;;;;;10531611;28;20052;-48
2022/10/18 09:51:42;;;;;;;5.28;1.13;;;21.00;81.40;;;;;;10528741;28;20044;-44
2022/10/18 09:56:49;;;;;;;5.55;1.05;;;20.70;82.20;;;;;;10525969;28;20140;-44
2022/10/18 10:01:51;;;;;;;7.95;1.20;;;20.00;86.60;;;;;;10521760;28;20130;-42
2022/10/18 10:06:55;;;;;;;5.00;1.55;;;20.30;78.50;;;;;;10521513;28;20072;-44
2022/10/18 10:11:58;;;;;;;10.13;1.23;;;20.50;83.60;;;;;;10536688;28;20083;-44
2022/10/18 10:17:03;;;;;;;6.85;1.02;;;20.70;82.70;;;;;;10532886;28;20076;-45
2022/10/18 10:22:07;;;;;;;7.72;1.45;;;20.90;80.90;;;;;;10528350;28;20048;-45
2022/10/18 10:27:20;;;;;;;4.63;0.80;;;20.10;86.50;;;;;;10539029;28;20048;-44
2022/10/18 10:32:24;;;;;;;3.42;0.90;;;20.10;86.50;;;;;;10522063;28;20071;-47
2022/10/18 10:37:32;;;;;;;6.57;0.95;;;20.10;84.50;;;;;;10530256;28;20461;-46
2022/10/18 10:42:38;;;;;;;5.57;0.75;;;20.40;85.00;;;;;;10530672;28;20075;-50
2022/10/18 10:47:40;;;;;;;1.60;0.68;;;20.30;75.60;;;;;;10535563;28;20044;-45
2022/10/18 10:52:47;;;;;;;8.15;1.13;;;20.50;83.30;;;;;;10533830;28;20083;-45
2022/10/18 10:57:52;;;;;;;5.65;0.80;;;19.30;74.10;;;;;;10536974;28;20079;-44
2022/10/18 11:03:06;;;;;;;12.38;1.08;;;19.80;84.90;;;;;;10538404;28;20067;-48
2022/10/18 11:08:10;;;;;;;2.60;0.60;;;19.90;84.50;;;;;;10537309;28;20189;-44
2022/10/18 11:13:28;;;;;;;4.18;0.60;;;19.70;86.60;;;;;;10531625;28;20052;-44
2022/10/18 11:18:34;;;;;;;8.68;1.48;;;19.80;71.90;;;;;;10534630;28;20060;-41
2022/10/18 11:23:38;;;;;;;2.72;0.60;;;20.30;82.80;;;;;;10541069;28;20421;-47
2022/10/18 11:28:57;;;;;;;4.55;0.77;;;20.00;82.60;;;;;;10536748;28;20481;-46
2022/10/18 11:34:15;;;;;;;4.65;0.70;;;19.90;85.60;;;;;;10526591;28;20098;-42
2022/10/18 11:39:27;;;;;;;5.13;0.80;;;19.40;83.90;;;;;;10533350;28;20097;-44
2022/10/18 11:44:39;;;;;;;4.03;0.90;;;20.40;75.10;;;;;;10535449;28;20079;-44
2022/10/18 11:50:02;;;;;;;5.10;0.60;;;19.20;85.50;;;;;;10534032;28;20048;-45
2022/10/18 11:55:35;;;;;;;4.25;0.50;;;19.90;85.00;;;;;;10534963;28;20110;-44
2022/10/18 12:00:48;;;;;;;4.80;0.73;;;19.60;85.80;;;;;;10539998;28;20564;-47
2022/10/18 12:05:52;;;;;;;5.38;0.80;;;19.30;86.40;;;;;;10524656;28;20061;-48
2022/10/18 12:10:56;;;;;;;6.13;0.70;;;19.50;78.80;;;;;;10531218;28;20142;-45
2022/10/18 12:16:03;;;;;;;5.65;0.80;;;20.00;85.70;;;;;;10533075;28;20401;-45
2022/10/18 12:21:06;;;;;;;5.40;0.70;;;19.90;81.90;;;;;;10522731;28;20051;-43
2022/10/18 12:26:10;;;;;;;1.58;0.80;;;20.70;79.60;;;;;;10534010;28;20086;-48
2022/10/18 12:31:21;;;;;;;4.80;0.63;;;20.20;83.20;;;;;;10532608;28;20468;-42
2022/10/18 12:36:45;;;;;;;4.73;0.73;;;20.40;82.10;;;;;;10542247;28;20461;-46
2022/10/18 12:41:48;;;;;;;3.00;0.98;;;19.70;83.00;;;;;;10534000;28;20040;-45
2022/10/18 12:46:53;;;;;;;3.10;0.75;;;20.10;79.60;;;;;;10531761;28;20048;-42
2022/10/18 12:51:58;;;;;;;4.70;0.85;;;20.20;82.50;;;;;;10526883;28;20145;-42
2022/10/18 12:57:02;;;;;;;3.65;0.63;;;21.00;79.50;;;;;;10543384;28;20130;-45
2022/10/18 13:02:24;;;;;;;6.22;0.70;;;21.30;78.50;;;;;;10530476;28;20040;-46
2022/10/18 13:07:39;;;;;;;5.30;0.90;;;20.90;81.50;;;;;;10529445;28;20052;-45
2022/10/18 13:12:57;;;;;;;6.82;1.10;;;20.90;80.70;;;;;;10533087;28;20135;-45
2022/10/18 13:18:06;;;;;;;7.85;0.90;;;21.40;75.70;;;;;;10539875;28;20102;-46
2022/10/18 13:23:23;;;;;;;7.93;1.08;;;21.30;73.60;;;;;;10541702;28;20079;-46
2022/10/18 13:28:35;;;;;;;5.22;1.17;;;21.90;76.40;;;;;;10531356;28;20068;-47
2022/10/18 13:33:40;;;;;;;2.72;0.80;;;21.40;73.80;;;;;;10534480;28;20058;-45
2022/10/18 13:38:58;;;;;;;5.53;0.95;;;21.60;73.30;;;;;;10528016;28;20143;-47
2022/10/18 13:44:24;;;;;;;10.02;1.45;;;22.00;73.70;;;;;;10529110;28;20087;-45
2022/10/18 13:49:38;;;;;;;3.00;0.50;;;21.90;66.60;;;;;;10531428;28;20048;-45
2022/10/18 13:55:00;;;;;;;3.25;0.68;;;22.00;71.90;;;;;;10530113;28;20511;-41
2022/10/18 14:00:20;;;;;;;5.60;0.50;;;22.20;72.30;;;;;;10530774;28;20044;-44
2022/10/18 14:05:41;;;;;;;1.35;0.40;;;22.90;72.20;;;;;;10527502;28;20074;-42
2022/10/18 14:10:48;;;;;;;2.72;0.50;;;22.40;71.10;;;;;;10527288;28;20075;-42
2022/10/18 14:15:54;;;;;;;4.00;0.80;;;22.50;71.00;;;;;;10528243;28;20142;-45
2022/10/18 14:21:03;;;;;;;6.47;1.08;;;22.60;64.50;;;;;;10530158;28;20102;-45
2022/10/18 14:26:12;;;;;;;4.10;1.02;;;22.80;68.70;;;;;;10550792;28;20044;-45
2022/10/18 14:31:17;;;;;;;6.47;1.00;;;22.80;64.30;;;;;;10533839;28;20086;-46
2022/10/18 14:36:25;;;;;;;8.40;1.05;;;22.70;68.70;;;;;;10536267;28;20048;-44
2022/10/18 14:41:28;;;;;;;7.00;1.65;;;22.80;68.00;;;;;;10537829;28;20040;-44
2022/10/18 14:46:33;;;;;;;3.13;0.90;;;23.10;64.90;;;;;;10520831;28;20125;-50
2022/10/18 14:51:38;;;;;;;9.63;1.10;;;22.90;68.80;;;;;;10537386;28;20397;-44
2022/10/18 14:56:42;;;;;;;4.03;0.77;;;23.30;68.80;;;;;;10537299;28;20840;-45
2022/10/18 15:01:53;;;;;;;7.97;0.98;;;23.10;68.30;;;;;;10536786;28;20138;-43
2022/10/18 15:06:57;;;;;;;3.53;0.70;;;23.20;68.70;;;;;;10547441;28;20048;-45
2022/10/18 15:11:59;;;;;;;4.90;0.60;;;23.30;68.70;;;;;;10535501;28;20074;-43
2022/10/18 15:17:07;;;;;;;0.93;0.40;;;23.30;68.60;;;;;;10536196;28;20133;-44
2022/10/18 15:22:10;;;;;;;3.53;1.05;;;23.40;69.00;;;;;;10541456;28;20048;-42
2022/10/18 15:27:18;;;;;;;3.50;0.70;;;23.40;68.60;;;;;;10537762;28;20078;-43
2022/10/18 15:32:25;;;;;;;4.38;0.63;;;23.50;67.90;;;;;;10537441;28;20043;-43
2022/10/18 15:37:44;;;;;;;4.60;0.80;;;23.50;67.90;;;;;;10528341;28;20131;-44
2022/10/18 15:42:46;;;;;;;1.10;0.57;;;23.50;67.70;;;;;;10530201;28;20072;-43
2022/10/18 15:48:01;;;;;;;6.43;0.82;;;23.60;67.40;;;;;;10535639;28;20077;-43
2022/10/18 15:53:24;;;;;;;3.42;0.80;;;23.70;67.40;;;;;;10528718;28;20142;-42
2022/10/18 15:58:28;;;;;;;2.35;0.50;;;23.30;67.30;;;;;;10540841;28;20048;-40
2022/10/18 16:03:33;;;;;;;1.40;0.40;;;23.80;67.50;;;;;;10530417;28;20138;-45
2022/10/18 16:08:40;;;;;;;3.17;0.68;;;23.70;67.80;;;;;;10525743;28;20067;-39
2022/10/18 16:13:43;;;;;;;5.07;1.00;;;23.70;67.80;;;;;;10527404;28;20060;-42
2022/10/18 16:18:45;;;;;;;2.38;0.40;;;23.40;67.70;;;;;;10531677;28;20048;-38
2022/10/18 16:23:48;;;;;;;;;;;23.70;68.20;;;;;;10549998;28;20135;-40
2022/10/18 16:28:51;;;;;;;4.53;0.70;;;23.70;68.20;;;;;;10532425;28;19938;-42
2022/10/18 16:33:55;;;;;;;3.40;1.23;;;23.60;68.20;;;;;;10531002;28;20516;-41
2022/10/18 16:39:01;;;;;;;9.50;2.72;;;23.60;68.90;;;;;;10527535;28;20143;-40
2022/10/18 16:44:02;;;;;;;14.13;4.60;;;23.50;69.40;;;;;;10532584;28;20071;-40
2022/10/18 16:49:05;;;;;;;17.02;5.90;;;23.40;69.80;;;;;;10531374;28;20048;-40
2022/10/18 16:54:08;;;;;;;23.48;7.25;;;23.50;70.10;;;;;;10529662;28;20052;-38
2022/10/18 16:59:20;;;;;;;20.50;7.75;;;23.40;70.30;;;;;;10529934;28;20055;-42
2022/10/18 17:04:22;;;;;;;;;;;23.30;70.50;;;;;;10532737;28;20123;-40
2022/10/18 17:09:26;;;;;;;24.63;8.00;;;23.30;70.30;;;;;;10533397;28;20218;-40
2022/10/18 17:14:27;;;;;;;22.70;7.20;;;23.30;70.70;;;;;;10527837;28;20529;-41
2022/10/18 17:19:29;;;;;;;20.08;6.72;;;23.30;71.00;;;;;;10529199;28;20398;-38
2022/10/18 17:24:34;;;;;;;18.10;6.57;;;23.30;71.40;;;;;;10544447;28;20044;-40
2022/10/18 17:29:37;;;;;;;15.18;6.05;;;23.20;71.60;;;;;;10524620;28;20079;-37
2022/10/18 17:34:39;;;;;;;12.02;5.50;;;23.20;72.00;;;;;;10529124;28;20506;-42
2022/10/18 17:39:42;;;;;;;;;;;23.20;72.40;;;;;;10531618;28;20051;-37
2022/10/18 17:44:45;;;;;;;16.77;5.57;;;23.70;73.00;;;;;;10529112;28;19977;-40
2022/10/18 17:49:46;;;;;;;14.18;4.88;;;22.70;72.70;;;;;;10530449;28;20055;-42
2022/10/18 17:54:50;;;;;;;13.77;5.78;;;23.10;73.10;;;;;;10527206;28;20553;-40
2022/10/18 17:59:53;;;;;;;10.82;4.38;;;23.10;73.40;;;;;;10530822;28;20536;-42
2022/10/18 18:04:56;;;;;;;9.75;4.15;;;23.00;73.60;;;;;;10531139;28;20032;-41
2022/10/18 18:09:59;;;;;;;16.30;4.95;;;23.10;73.80;;;;;;10539070;28;20114;-40
2022/10/18 18:15:01;;;;;;;11.05;4.60;;;23.00;74.00;;;;;;10535501;28;20139;-39
2022/10/18 18:20:03;;;;;;;;;;;23.50;74.40;;;;;;10537249;28;20044;-40
2022/10/18 18:25:08;;;;;;;7.70;3.93;;;23.00;74.20;;;;;;10553063;28;20015;-39
2022/10/18 18:30:11;;;;;;;11.23;4.25;;;22.90;74.30;;;;;;10530796;28;20748;-40
2022/10/18 18:35:13;;;;;;;13.52;3.85;;;22.90;74.50;;;;;;10535441;28;20044;-39
2022/10/18 18:40:16;;;;;;;;;;;22.90;74.60;;;;;;10536687;28;20076;-39
2022/10/18 18:45:18;;;;;;;10.35;3.60;;;22.80;74.60;;;;;;10537833;28;19920;-40
2022/10/18 18:50:19;;;;;;;9.65;3.92;;;22.80;74.80;;;;;;10537979;28;20040;-39
2022/10/18 18:55:23;;;;;;;10.75;3.25;;;22.80;74.90;;;;;;10537741;28;20079;-40
2022/10/18 19:00:25;;;;;;;6.20;2.97;;;23.20;75.40;;;;;;10532561;28;20105;-39
2022/10/18 19:05:28;;;;;;;9.13;3.50;;;22.80;75.30;;;;;;10532087;28;20076;-39
2022/10/18 19:10:31;;;;;;;9.23;3.45;;;22.80;75.50;;;;;;10530248;28;20036;-40
2022/10/18 19:15:33;;;;;;;10.65;3.03;;;22.70;75.50;;;;;;10528716;28;20143;-40
2022/10/18 19:20:35;;;;;;;7.40;3.25;;;22.60;75.50;;;;;;10530442;28;20102;-41
2022/10/18 19:25:39;;;;;;;;;;;22.60;75.40;;;;;;10531818;28;20460;-41
2022/10/18 19:30:41;;;;;;;11.95;2.60;;;22.60;75.40;;;;;;10535254;28;19923;-40
2022/10/18 19:35:43;;;;;;;12.00;2.67;;;22.90;75.60;;;;;;10533521;28;20148;-39
2022/10/18 19:40:46;;;;;;;12.45;3.05;;;22.50;75.90;;;;;;10534275;28;20063;-40
2022/10/18 19:45:48;;;;;;;9.15;3.08;;;22.40;75.50;;;;;;10530098;28;20216;-39
2022/10/18 19:50:50;;;;;;;6.70;2.63;;;22.40;75.40;;;;;;10532247;28;20094;-39
2022/10/18 19:55:59;;;;;;;14.18;3.03;;;22.30;75.40;;;;;;10529109;28;20052;-40
2022/10/18 20:01:01;;;;;;;8.75;2.50;;;22.30;75.30;;;;;;10534633;28;20044;-41
2022/10/18 20:06:03;;;;;;;;;;;22.30;75.30;;;;;;10528840;28;20443;-40
2022/10/18 20:11:08;;;;;;;8.48;2.70;;;22.20;75.30;;;;;;10533179;28;20011;-40
2022/10/18 20:16:12;;;;;;;8.38;2.40;;;22.20;75.40;;;;;;10532928;28;20079;-40
2022/10/18 20:21:16;;;;;;;9.73;3.35;;;22.20;75.40;;;;;;10531885;28;20132;-42
2022/10/18 20:26:20;;;;;;;12.23;3.33;;;22.20;75.50;;;;;;10538253;28;20361;-42
2022/10/18 20:31:24;;;;;;;17.83;3.15;;;22.10;75.40;;;;;;10536906;28;20047;-39
2022/10/18 20:36:27;;;;;;;8.10;2.53;;;22.10;75.50;;;;;;10531279;28;20450;-40
2022/10/18 20:41:33;;;;;;;13.10;2.75;;;22.10;75.50;;;;;;10532667;28;20070;-40
2022/10/18 20:46:37;;;;;;;9.38;2.63;;;22.00;75.60;;;;;;10541385;28;20058;-42
2022/10/18 20:51:39;;;;;;;13.75;3.45;;;22.00;75.60;;;;;;10532140;28;20681;-39
2022/10/18 20:56:42;;;;;;;7.85;3.03;;;22.00;75.80;;;;;;10532933;28;20091;-40
2022/10/18 21:01:44;;;;;;;5.20;2.53;;;22.10;76.10;;;;;;10530272;28;20546;-40
2022/10/18 21:06:46;;;;;;;11.73;3.63;;;21.90;76.00;;;;;;10528110;28;20101;-40
2022/10/18 21:11:52;;;;;;;16.25;2.83;;;21.90;75.90;;;;;;10534990;28;20149;-42
2022/10/18 21:16:54;;;;;;;11.40;2.10;;;21.80;75.90;;;;;;10533811;28;20079;-41
2022/10/18 21:21:57;;;;;;;9.05;2.42;;;21.90;76.10;;;;;;10533351;28;20195;-40
2022/10/18 21:27:00;;;;;;;10.20;2.38;;;21.80;75.90;;;;;;10542597;28;20127;-40
2022/10/18 21:32:03;;;;;;;7.78;2.55;;;22.40;76.30;;;;;;10528163;28;20443;-38
2022/10/18 21:37:05;;;;;;;13.77;2.60;;;21.70;75.90;;;;;;10532388;28;20136;-40
2022/10/18 21:42:08;;;;;;;10.38;2.63;;;21.80;76.00;;;;;;10530221;28;20044;-41
2022/10/18 21:47:10;;;;;;;11.07;2.50;;;21.70;75.90;;;;;;10502589;28;20401;-43
2022/10/18 21:52:12;;;;;;;11.25;2.80;;;21.60;75.80;;;;;;10532941;28;20067;-43
2022/10/18 21:57:15;;;;;;;17.10;2.28;;;21.60;75.70;;;;;;10528549;28;20053;-41
2022/10/18 22:02:17;;;;;;;4.82;1.73;;;21.90;75.90;;;;;;10526869;28;20503;-43
2022/10/18 22:07:18;;;;;;;7.05;1.75;;;22.00;76.00;;;;;;10527721;28;20721;-41
2022/10/18 22:12:22;;;;;;;7.80;2.20;;;21.60;75.70;;;;;;10529433;28;20396;-41
2022/10/18 22:17:24;;;;;;;8.35;2.35;;;21.50;75.60;;;;;;10535687;28;20056;-41
2022/10/18 22:22:26;;;;;;;6.38;1.77;;;21.50;75.70;;;;;;10527391;28;20066;-39
2022/10/18 22:27:31;;;;;;;4.57;1.67;;;21.50;75.60;;;;;;10541079;28;20441;-40
2022/10/18 22:32:33;;;;;;;4.90;1.35;;;21.50;75.60;;;;;;10543955;28;20083;-43
2022/10/18 22:37:34;;;;;;;5.47;1.75;;;21.90;75.80;;;;;;10533388;28;20077;-39
2022/10/18 22:42:38;;;;;;;4.78;1.60;;;21.40;75.70;;;;;;10523061;28;20140;-40
2022/10/18 22:47:40;;;;;;;6.97;1.77;;;21.40;75.70;;;;;;10533145;28;20048;-40
2022/10/18 22:52:41;;;;;;;7.80;1.42;;;21.40;76.50;;;;;;10541424;28;20189;-40
2022/10/18 22:57:45;;;;;;;4.13;1.73;;;21.80;76.10;;;;;;10544963;28;20072;-40
2022/10/18 23:02:48;;;;;;;3.53;1.45;;;22.10;76.30;;;;;;10542667;28;20052;-40
2022/10/18 23:07:50;;;;;;;4.85;1.42;;;21.40;75.60;;;;;;10538329;28;20131;-40
2022/10/18 23:12:53;;;;;;;3.65;1.20;;;21.30;75.70;;;;;;10537692;28;20051;-40
2022/10/18 23:17:57;;;;;;;5.55;1.67;;;21.30;75.70;;;;;;10536528;28;20054;-40
2022/10/18 23:22:59;;;;;;;3.42;1.20;;;21.30;75.50;;;;;;10541684;28;20131;-40
2022/10/18 23:28:02;;;;;;;1.98;0.95;;;21.30;75.50;;;;;;10533786;28;20139;-40
2022/10/18 23:33:04;;;;;;;2.63;1.10;;;21.30;75.30;;;;;;10535091;28;20048;-40
2022/10/18 23:38:06;;;;;;;1.95;1.00;;;21.30;75.40;;;;;;10538692;28;20134;-40
2022/10/18 23:43:09;;;;;;;2.45;1.08;;;21.20;75.30;;;;;;10537230;28;20040;-41
2022/10/18 23:48:11;;;;;;;3.60;1.80;;;21.20;75.40;;;;;;10535696;28;20200;-41
2022/10/18 23:53:13;;;;;;;3.00;1.45;;;21.20;75.40;;;;;;10536545;28;20449;-41
2022/10/18 23:58:16;;;;;;;2.63;1.02;;;21.20;75.30;;;;;;10547166;28;20048;-40
